Al Aqiq, Saudi Arabia
Current Conditions -  °F | °C
As of 6:00 PM on Thursday 23 Oct 2014 (Local Time) from OEBA Reporting Station
Clear Clear  
Wind Chill: 79°   Ceiling: Unl
Heat Index: 79°   Visibility: 6mi
Dew Point: 36°   Wind: 9mph
Humidity: 21%   Direction: 80°E
Pressure: 30.18"   Gusts: NA
Location:  20.26°N, 41.67°E
Report Text: OEBA 231500Z 08008KT CAVOK 26/02 Q1022 NOSIG
Loading
Personal Weather Stations






























Interactive Weather Map
Tropical Storm Tracking
New forecast layout! Learn more

10-Day Weather Forecast

Advertisements
Track Severe Weather on mobile